createdAt,value
2022-08-07T00:02:35.524Z,21.10
2022-08-07T00:04:09.637Z,21.10
2022-08-07T00:06:41.045Z,21.10
2022-08-07T00:09:22.274Z,21.10
2022-08-07T00:11:55.997Z,21.10
2022-08-07T00:14:31.241Z,21.10
2022-08-07T00:17:01.592Z,21.10
2022-08-07T00:19:34.188Z,21.10
2022-08-07T00:22:24.768Z,21.10
2022-08-07T00:25:04.025Z,21.00
2022-08-07T00:27:51.726Z,21.00
2022-08-07T00:30:27.950Z,21.00
2022-08-07T00:32:57.705Z,21.00
2022-08-07T00:35:27.100Z,21.10
2022-08-07T00:37:59.287Z,21.00
2022-08-07T00:40:36.117Z,20.90
2022-08-07T00:43:09.974Z,21.00
2022-08-07T00:45:46.625Z,21.00
2022-08-07T00:48:14.948Z,21.00
2022-08-07T00:50:51.174Z,20.90
2022-08-07T00:53:20.647Z,20.90
2022-08-07T00:56:02.117Z,20.90
2022-08-07T00:58:32.440Z,20.90
2022-08-07T01:01:02.323Z,20.80
2022-08-07T01:03:55.639Z,20.90
2022-08-07T01:06:20.137Z,20.90
2022-08-07T01:08:53.078Z,20.80
2022-08-07T01:12:04.713Z,20.80
2022-08-07T01:14:11.174Z,20.80
2022-08-07T01:16:43.105Z,20.80
2022-08-07T01:19:19.173Z,20.90
2022-08-07T01:21:55.433Z,20.80
2022-08-07T01:24:30.602Z,20.80
2022-08-07T01:27:00.544Z,20.70
2022-08-07T01:29:31.315Z,20.60
2022-08-07T01:32:05.190Z,20.70
2022-08-07T01:34:35.011Z,20.70
2022-08-07T01:37:17.122Z,20.70
2022-08-07T01:39:48.689Z,20.70
2022-08-07T01:42:39.433Z,20.70
2022-08-07T01:45:18.196Z,20.70
2022-08-07T01:48:18.338Z,20.60
2022-08-07T01:50:40.232Z,20.70
2022-08-07T01:53:20.823Z,20.60
2022-08-07T01:55:57.949Z,20.70
2022-08-07T01:58:33.318Z,20.60
2022-08-07T02:01:09.937Z,20.60
2022-08-07T02:04:00.674Z,20.60
2022-08-07T02:06:33.531Z,20.60
2022-08-07T02:09:11.551Z,20.60
2022-08-07T02:12:02.889Z,20.60
2022-08-07T02:14:40.742Z,20.60
2022-08-07T02:17:27.442Z,20.60
2022-08-07T02:20:07.835Z,20.60
2022-08-07T02:22:47.290Z,20.60
2022-08-07T02:25:32.208Z,20.60
2022-08-07T02:28:25.799Z,20.60
2022-08-07T02:31:10.352Z,20.50
2022-08-07T02:34:04.083Z,20.50
2022-08-07T02:36:46.370Z,20.50
2022-08-07T02:39:43.518Z,20.50
2022-08-07T02:42:16.167Z,20.50
2022-08-07T02:44:49.753Z,20.50
2022-08-07T02:47:23.948Z,20.40
2022-08-07T02:50:05.066Z,20.50
2022-08-07T02:52:39.155Z,20.40
2022-08-07T02:55:27.736Z,20.40
2022-08-07T02:58:05.473Z,20.40
2022-08-07T03:00:36.134Z,20.40
2022-08-07T03:03:13.465Z,20.40
2022-08-07T03:05:45.834Z,20.30
2022-08-07T03:08:17.555Z,20.30
2022-08-07T03:10:48.788Z,20.30
2022-08-07T03:13:24.167Z,20.40
2022-08-07T03:15:58.403Z,20.40
2022-08-07T03:18:34.575Z,20.40
2022-08-07T03:21:08.490Z,20.40
2022-08-07T03:24:19.470Z,20.40
2022-08-07T03:26:33.128Z,20.30
2022-08-07T03:29:11.050Z,20.40
2022-08-07T03:31:46.271Z,20.30
2022-08-07T03:34:22.231Z,20.30
2022-08-07T03:36:55.138Z,20.30
2022-08-07T03:39:46.316Z,20.10
2022-08-07T03:42:19.995Z,20.10
2022-08-07T03:44:53.392Z,20.20
2022-08-07T03:47:23.059Z,20.10
2022-08-07T03:49:53.661Z,20.20
2022-08-07T03:52:28.218Z,20.20
2022-08-07T03:55:06.528Z,20.20
2022-08-07T03:58:34.960Z,20.10
2022-08-07T04:00:33.795Z,20.10
2022-08-07T04:03:05.964Z,20.10
2022-08-07T04:05:42.072Z,20.10
2022-08-07T04:08:22.527Z,20.20
2022-08-07T04:10:54.514Z,20.10
2022-08-07T04:14:10.878Z,20.20
2022-08-07T04:16:34.052Z,20.10
2022-08-07T04:19:14.701Z,20.10
2022-08-07T04:21:58.768Z,20.10
2022-08-07T04:24:33.908Z,20.10
2022-08-07T04:27:06.111Z,20.10
2022-08-07T04:30:01.608Z,20.10
2022-08-07T04:32:44.828Z,20.10
2022-08-07T04:35:16.748Z,20.10
2022-08-07T04:38:03.951Z,20.00
2022-08-07T04:40:35.091Z,20.10
2022-08-07T04:43:03.900Z,20.10
2022-08-07T04:45:57.384Z,20.10
2022-08-07T04:48:40.546Z,20.10
2022-08-07T04:51:19.685Z,20.10
2022-08-07T04:54:06.326Z,20.10
2022-08-07T04:58:11.157Z,20.10
2022-08-07T05:00:09.410Z,20.20
2022-08-07T05:02:31.582Z,20.20
2022-08-07T05:05:11.475Z,20.20
2022-08-07T05:08:01.204Z,20.20
2022-08-07T05:10:34.342Z,20.30
2022-08-07T05:14:44.839Z,20.20
2022-08-07T05:16:04.794Z,20.30
2022-08-07T05:18:36.727Z,20.30
2022-08-07T05:21:10.920Z,20.50
2022-08-07T05:23:45.347Z,20.40
2022-08-07T05:26:23.730Z,20.40
2022-08-07T05:28:57.327Z,20.30
2022-08-07T05:31:35.067Z,20.40
2022-08-07T05:34:11.342Z,20.40
2022-08-07T05:36:48.944Z,20.40
2022-08-07T05:40:17.067Z,20.30
2022-08-07T05:42:33.731Z,20.40
2022-08-07T05:45:25.856Z,20.50
2022-08-07T05:48:03.535Z,20.40
2022-08-07T05:50:42.641Z,20.40
2022-08-07T05:54:13.828Z,20.50
2022-08-07T05:56:05.538Z,20.50
2022-08-07T05:58:39.210Z,20.50
2022-08-07T06:01:12.352Z,20.60
2022-08-07T06:03:57.101Z,20.70
2022-08-07T06:06:29.451Z,20.70
2022-08-07T06:09:04.338Z,20.60
2022-08-07T06:11:35.118Z,20.60
2022-08-07T06:14:12.585Z,20.70
2022-08-07T06:16:56.247Z,20.70
2022-08-07T06:19:52.318Z,20.70
2022-08-07T06:22:27.069Z,20.70
2022-08-07T06:25:17.373Z,20.70
2022-08-07T06:28:00.960Z,20.70
2022-08-07T06:30:35.312Z,20.80
2022-08-07T06:33:09.807Z,20.80
2022-08-07T06:35:47.565Z,20.80
2022-08-07T06:38:33.426Z,20.80
2022-08-07T06:41:09.613Z,20.80
2022-08-07T06:43:46.408Z,20.90
2022-08-07T06:46:35.328Z,21.00
2022-08-07T06:49:04.893Z,21.00
2022-08-07T06:51:49.348Z,21.00
2022-08-07T06:55:33.950Z,21.00
2022-08-07T06:57:13.514Z,21.00
2022-08-07T07:00:17.538Z,21.00
2022-08-07T07:02:53.942Z,21.10
2022-08-07T07:06:02.901Z,21.10
2022-08-07T07:08:18.641Z,21.10
2022-08-07T07:10:56.991Z,21.10
2022-08-07T07:13:43.519Z,21.20
2022-08-07T07:16:30.023Z,21.20
2022-08-07T07:19:54.420Z,21.30
2022-08-07T07:22:11.681Z,21.30
2022-08-07T07:24:43.065Z,21.30
2022-08-07T07:27:35.585Z,21.30
2022-08-07T07:30:26.524Z,21.40
2022-08-07T07:33:03.556Z,21.40
2022-08-07T07:35:54.753Z,21.40
2022-08-07T07:38:25.373Z,21.50
2022-08-07T07:40:58.849Z,21.40
2022-08-07T07:44:13.771Z,21.40
2022-08-07T07:46:38.505Z,21.40
2022-08-07T07:50:32.821Z,21.50
2022-08-07T07:52:06.024Z,21.50
2022-08-07T07:54:36.703Z,21.50
2022-08-07T07:57:06.270Z,21.40
2022-08-07T07:59:52.210Z,21.50
2022-08-07T08:02:34.260Z,21.50
2022-08-07T08:05:14.209Z,21.60
2022-08-07T08:07:59.903Z,21.60
2022-08-07T08:10:37.622Z,21.60
2022-08-07T08:13:10.538Z,21.60
2022-08-07T08:15:58.414Z,21.70
2022-08-07T08:18:30.191Z,21.70
2022-08-07T08:21:01.297Z,21.70
2022-08-07T08:23:49.124Z,21.70
2022-08-07T08:26:36.477Z,21.70
2022-08-07T08:29:06.107Z,21.80
2022-08-07T08:31:58.839Z,21.80
2022-08-07T08:34:36.611Z,21.80
2022-08-07T08:37:09.946Z,21.80
2022-08-07T08:39:58.408Z,21.90
2022-08-07T08:42:33.097Z,21.90
2022-08-07T08:45:13.346Z,21.90
2022-08-07T08:47:52.590Z,21.90
2022-08-07T08:50:34.929Z,21.90
2022-08-07T08:53:16.536Z,22.00
2022-08-07T08:55:55.378Z,22.00
2022-08-07T08:58:35.009Z,22.00
2022-08-07T09:01:14.773Z,22.00
2022-08-07T09:03:53.256Z,22.00
2022-08-07T09:06:38.304Z,22.10
2022-08-07T09:09:29.814Z,22.10
2022-08-07T09:12:30.835Z,22.10
2022-08-07T09:16:23.872Z,22.10
2022-08-07T09:18:34.991Z,22.10
2022-08-07T09:21:34.083Z,22.20
2022-08-07T09:24:53.802Z,22.20
2022-08-07T09:27:17.863Z,22.20
2022-08-07T09:30:06.308Z,22.20
2022-08-07T09:32:58.975Z,22.20
2022-08-07T09:36:02.701Z,22.30
2022-08-07T09:38:55.103Z,22.30
2022-08-07T09:41:36.245Z,22.40
2022-08-07T09:44:33.003Z,22.40
2022-08-07T09:47:52.427Z,22.40
2022-08-07T09:50:19.332Z,22.40
2022-08-07T09:52:52.313Z,22.40
2022-08-07T09:55:29.318Z,22.50
2022-08-07T09:58:31.895Z,22.50
2022-08-07T10:01:50.954Z,22.50
2022-08-07T10:04:28.089Z,22.50
2022-08-07T10:07:25.875Z,22.60
2022-08-07T10:10:21.014Z,22.60
2022-08-07T10:13:55.453Z,22.60
2022-08-07T10:16:14.639Z,22.70
2022-08-07T10:19:11.140Z,22.70
2022-08-07T10:22:14.493Z,22.70
2022-08-07T10:24:57.629Z,22.80
2022-08-07T10:27:47.438Z,22.80
2022-08-07T10:30:27.565Z,22.80
2022-08-07T10:33:15.285Z,22.80
2022-08-07T10:36:12.699Z,22.90
2022-08-07T10:38:58.782Z,22.80
2022-08-07T10:41:47.194Z,22.90
2022-08-07T10:44:38.345Z,22.90
2022-08-07T10:47:27.049Z,23.00
2022-08-07T10:50:15.162Z,23.00
2022-08-07T10:52:54.173Z,23.00
2022-08-07T10:55:38.174Z,23.10
2022-08-07T10:58:18.697Z,23.10
2022-08-07T11:01:13.650Z,23.10
2022-08-07T11:04:01.272Z,23.20
2022-08-07T11:06:47.192Z,23.20
2022-08-07T11:10:07.502Z,23.30
2022-08-07T11:12:19.006Z,23.30
2022-08-07T11:15:14.508Z,23.30
2022-08-07T11:17:53.998Z,23.40
2022-08-07T11:20:26.148Z,23.40
2022-08-07T11:23:04.129Z,23.50
2022-08-07T11:25:48.006Z,23.50
2022-08-07T11:28:24.836Z,23.60
2022-08-07T11:30:58.813Z,23.60
2022-08-07T11:33:48.708Z,23.70
2022-08-07T11:36:39.732Z,23.70
2022-08-07T11:39:19.531Z,23.80
2022-08-07T11:42:01.795Z,23.80
2022-08-07T11:44:40.551Z,23.90
2022-08-07T11:47:55.963Z,23.90
2022-08-07T11:50:35.689Z,24.00
2022-08-07T11:53:23.982Z,24.00
2022-08-07T11:56:15.658Z,24.10
2022-08-07T12:00:07.934Z,24.10
2022-08-07T12:02:17.651Z,24.20
2022-08-07T12:05:09.067Z,24.20
2022-08-07T12:07:53.793Z,24.30
2022-08-07T12:10:42.019Z,24.30
2022-08-07T12:13:18.609Z,24.30
2022-08-07T12:16:09.111Z,24.30
2022-08-07T12:18:45.701Z,24.30
2022-08-07T12:22:36.144Z,24.30
2022-08-07T12:24:37.654Z,24.30
2022-08-07T12:27:15.761Z,24.40
2022-08-07T12:29:51.575Z,24.40
2022-08-07T12:32:28.801Z,24.40
2022-08-07T12:35:00.896Z,24.40
2022-08-07T12:38:09.378Z,24.40
2022-08-07T12:40:47.629Z,24.40
2022-08-07T12:44:04.395Z,24.40
2022-08-07T12:46:31.994Z,24.50
2022-08-07T12:49:09.800Z,24.50
2022-08-07T12:51:51.348Z,24.50
2022-08-07T12:54:41.428Z,24.50
2022-08-07T12:57:19.451Z,24.50
2022-08-07T12:59:54.186Z,24.50
2022-08-07T13:02:39.344Z,24.50
2022-08-07T13:06:03.572Z,24.40
2022-08-07T13:08:38.516Z,24.40
2022-08-07T13:11:30.779Z,24.30
2022-08-07T13:14:25.381Z,24.40
2022-08-07T13:17:05.567Z,24.30
2022-08-07T13:19:50.360Z,24.30
2022-08-07T13:22:31.243Z,24.30
2022-08-07T13:25:03.984Z,24.20
2022-08-07T13:28:11.676Z,24.20
2022-08-07T13:30:41.472Z,24.20
2022-08-07T13:34:30.354Z,24.10
2022-08-07T13:36:18.056Z,24.10
2022-08-07T13:38:54.321Z,24.10
2022-08-07T13:41:33.192Z,24.00
2022-08-07T13:44:04.303Z,24.00
2022-08-07T13:46:49.653Z,24.00
2022-08-07T13:50:33.344Z,24.00
2022-08-07T13:52:31.614Z,23.90
2022-08-07T13:55:06.539Z,23.90
2022-08-07T13:57:38.167Z,23.90
2022-08-07T14:00:13.375Z,23.90
2022-08-07T14:02:58.871Z,23.90
2022-08-07T14:05:37.351Z,23.90
2022-08-07T14:08:09.203Z,23.90
2022-08-07T14:10:42.087Z,23.80
2022-08-07T14:13:17.986Z,23.80
2022-08-07T14:15:54.164Z,23.80
2022-08-07T14:18:30.744Z,23.80
2022-08-07T14:21:21.250Z,23.80
2022-08-07T14:24:04.950Z,23.80
2022-08-07T14:26:39.210Z,23.80
2022-08-07T14:30:07.337Z,23.80
2022-08-07T14:32:07.821Z,23.80
2022-08-07T14:34:45.833Z,23.80
2022-08-07T14:37:19.049Z,23.80
2022-08-07T14:40:16.871Z,23.70
2022-08-07T14:43:01.497Z,23.70
2022-08-07T14:48:21.002Z,23.70
2022-08-07T14:50:53.335Z,23.70
2022-08-07T14:54:08.877Z,23.70
2022-08-07T14:56:29.585Z,23.70
2022-08-07T14:59:03.018Z,23.70
2022-08-07T15:01:51.306Z,23.70
2022-08-07T15:04:25.194Z,23.70
2022-08-07T15:06:53.989Z,23.70
2022-08-07T15:12:26.224Z,23.60
2022-08-07T15:17:59.169Z,23.60
2022-08-07T15:20:55.275Z,23.60
2022-08-07T15:25:14.899Z,23.60
2022-08-07T15:26:28.703Z,23.60
2022-08-07T15:30:09.206Z,23.60
2022-08-07T15:31:57.606Z,23.60
2022-08-07T15:34:26.908Z,23.60
2022-08-07T15:39:57.051Z,23.60
2022-08-07T15:42:51.766Z,23.60
2022-08-07T15:45:55.490Z,23.60
2022-08-07T15:48:25.758Z,23.60
2022-08-07T15:51:07.929Z,23.60
2022-08-07T15:53:51.971Z,23.60
2022-08-07T15:56:25.418Z,23.60
2022-08-07T15:58:59.228Z,23.60
2022-08-07T16:01:39.075Z,23.60
2022-08-07T16:04:14.767Z,23.60
2022-08-07T16:06:50.443Z,23.60
2022-08-07T16:09:23.913Z,23.60
2022-08-07T16:12:28.631Z,23.60
2022-08-07T16:15:56.417Z,23.60
2022-08-07T16:18:10.850Z,23.60
2022-08-07T16:20:55.242Z,23.60
2022-08-07T16:23:58.655Z,23.60
2022-08-07T16:26:59.630Z,23.60
2022-08-07T16:30:11.639Z,23.60
2022-08-07T16:32:46.481Z,23.60
2022-08-07T16:35:56.858Z,23.50
2022-08-07T16:38:59.886Z,23.60
2022-08-07T16:42:02.215Z,23.60
2022-08-07T16:45:15.516Z,23.50
2022-08-07T16:47:57.061Z,23.50
2022-08-07T16:50:52.749Z,23.50
2022-08-07T16:54:01.643Z,23.50
2022-08-07T16:56:37.646Z,23.50
2022-08-07T16:59:17.424Z,23.50
2022-08-07T17:02:03.153Z,23.50
2022-08-07T17:04:50.819Z,23.50
2022-08-07T17:07:51.975Z,23.50
2022-08-07T17:10:33.339Z,23.40
2022-08-07T17:13:41.339Z,23.50
2022-08-07T17:16:25.008Z,23.50
2022-08-07T17:19:04.547Z,23.40
2022-08-07T17:21:51.524Z,23.50
2022-08-07T17:24:35.483Z,23.40
2022-08-07T17:27:08.091Z,23.40
2022-08-07T17:30:15.891Z,23.40
2022-08-07T17:32:53.296Z,23.40
2022-08-07T17:35:51.436Z,23.40
2022-08-07T17:38:33.859Z,23.40
2022-08-07T17:41:30.583Z,23.40
2022-08-07T17:44:06.531Z,23.40
2022-08-07T17:46:52.464Z,23.40
2022-08-07T17:49:24.391Z,23.40
2022-08-07T17:52:01.303Z,23.40
2022-08-07T17:54:53.158Z,23.40
2022-08-07T17:57:56.513Z,23.40
2022-08-07T18:00:32.718Z,23.40
2022-08-07T18:03:11.175Z,23.40
2022-08-07T18:06:02.731Z,23.30
2022-08-07T18:09:00.562Z,23.40
2022-08-07T18:12:16.166Z,23.30
2022-08-07T18:14:37.340Z,23.30
2022-08-07T18:17:11.364Z,23.40
2022-08-07T18:21:08.187Z,23.30
2022-08-07T18:22:40.193Z,23.30
2022-08-07T18:25:18.812Z,23.20
2022-08-07T18:28:34.256Z,23.30
2022-08-07T18:31:09.443Z,23.30
2022-08-07T18:34:06.427Z,23.30
2022-08-07T18:37:09.608Z,23.30
2022-08-07T18:40:07.083Z,23.30
2022-08-07T18:42:54.703Z,23.30
2022-08-07T18:45:44.320Z,23.30
2022-08-07T18:48:52.169Z,23.30
2022-08-07T18:52:33.982Z,23.30
2022-08-07T18:54:27.766Z,23.30
2022-08-07T18:57:30.844Z,23.20
2022-08-07T19:00:34.032Z,23.20
2022-08-07T19:03:03.890Z,23.20
2022-08-07T19:06:02.819Z,23.20
2022-08-07T19:08:46.514Z,23.20
2022-08-07T19:11:36.002Z,23.20
2022-08-07T19:14:19.787Z,23.20
2022-08-07T19:17:06.810Z,23.10
2022-08-07T19:19:54.624Z,23.10
2022-08-07T19:22:31.004Z,23.10
2022-08-07T19:25:05.636Z,23.10
2022-08-07T19:28:56.896Z,23.10
2022-08-07T19:31:05.816Z,23.10
2022-08-07T19:33:33.357Z,23.10
2022-08-07T19:36:08.885Z,23.10
2022-08-07T19:38:52.600Z,23.00
2022-08-07T19:41:44.748Z,23.00
2022-08-07T19:44:22.119Z,23.00
2022-08-07T19:46:57.586Z,23.00
2022-08-07T19:49:57.459Z,23.00
2022-08-07T19:52:25.718Z,23.00
2022-08-07T19:54:57.423Z,22.90
2022-08-07T19:58:03.351Z,22.90
2022-08-07T20:00:28.156Z,22.90
2022-08-07T20:03:02.816Z,22.90
2022-08-07T20:06:00.570Z,22.80
2022-08-07T20:08:28.719Z,22.80
2022-08-07T20:11:03.972Z,22.80
2022-08-07T20:13:44.881Z,22.80
2022-08-07T20:16:31.938Z,22.80
2022-08-07T20:19:10.584Z,22.80
2022-08-07T20:21:41.624Z,22.80
2022-08-07T20:24:21.522Z,22.70
2022-08-07T20:26:54.573Z,22.70
2022-08-07T20:29:48.737Z,22.70
2022-08-07T20:32:22.688Z,22.80
2022-08-07T20:34:55.884Z,22.80
2022-08-07T20:37:33.835Z,22.80
2022-08-07T20:40:32.250Z,22.70
2022-08-07T20:42:59.053Z,22.70
2022-08-07T20:45:33.622Z,22.70
2022-08-07T20:48:25.936Z,22.70
2022-08-07T20:51:00.493Z,22.70
2022-08-07T20:54:03.110Z,22.70
2022-08-07T20:56:25.937Z,22.70
2022-08-07T20:58:58.831Z,22.60
2022-08-07T21:01:29.863Z,22.60
2022-08-07T21:04:23.735Z,22.60
2022-08-07T21:06:56.684Z,22.50
2022-08-07T21:09:51.739Z,22.50
2022-08-07T21:12:26.002Z,22.50
2022-08-07T21:15:00.957Z,22.40
2022-08-07T21:18:03.031Z,22.40
2022-08-07T21:20:29.731Z,22.40
2022-08-07T21:23:07.753Z,22.40
2022-08-07T21:26:01.404Z,22.40
2022-08-07T21:28:48.910Z,22.40
2022-08-07T21:31:49.193Z,22.30
2022-08-07T21:34:32.247Z,22.30
2022-08-07T21:37:08.642Z,22.20
2022-08-07T21:39:51.845Z,22.20
2022-08-07T21:42:42.947Z,22.10
2022-08-07T21:46:10.901Z,22.10
2022-08-07T21:48:27.934Z,22.10
2022-08-07T21:51:20.065Z,22.00
2022-08-07T21:53:55.912Z,22.10
2022-08-07T21:56:47.089Z,22.10
2022-08-07T22:00:02.878Z,22.10
2022-08-07T22:02:29.643Z,22.10
2022-08-07T22:05:01.760Z,22.10
2022-08-07T22:07:58.908Z,22.20
2022-08-07T22:10:28.915Z,22.20
2022-08-07T22:13:09.130Z,22.20
2022-08-07T22:16:45.677Z,22.10
2022-08-07T22:18:40.771Z,22.10
2022-08-07T22:21:16.620Z,22.10
2022-08-07T22:23:54.279Z,22.10
2022-08-07T22:26:27.823Z,22.10
2022-08-07T22:29:04.761Z,22.10
2022-08-07T22:32:03.453Z,22.10
2022-08-07T22:34:49.798Z,22.10
2022-08-07T22:38:02.830Z,22.10
2022-08-07T22:40:27.854Z,22.10
2022-08-07T22:43:03.520Z,22.10
2022-08-07T22:46:40.407Z,22.10
2022-08-07T22:49:00.775Z,22.10
2022-08-07T22:51:51.994Z,22.00
2022-08-07T22:54:41.591Z,22.00
2022-08-07T22:57:41.169Z,22.00
2022-08-07T23:00:18.046Z,22.00
2022-08-07T23:03:09.413Z,22.00
2022-08-07T23:06:09.606Z,22.00
2022-08-07T23:10:04.288Z,22.10
2022-08-07T23:12:01.487Z,22.10
2022-08-07T23:14:38.880Z,22.00
2022-08-07T23:17:33.812Z,22.00
2022-08-07T23:20:51.915Z,22.10
2022-08-07T23:24:05.014Z,22.10
2022-08-07T23:26:29.522Z,22.10
2022-08-07T23:29:42.828Z,22.10
2022-08-07T23:34:22.320Z,22.10
2022-08-07T23:35:16.712Z,22.10
2022-08-07T23:38:36.948Z,22.00
2022-08-07T23:41:24.494Z,22.00
2022-08-07T23:44:29.691Z,22.00
2022-08-07T23:47:16.589Z,22.00
2022-08-07T23:50:00.400Z,21.90
2022-08-07T23:52:58.104Z,21.80
2022-08-07T23:55:52.168Z,21.90
2022-08-07T23:58:26.101Z,21.90
